createdAt,value
2022-09-07T00:00:23.643Z,100.00
2022-09-07T00:15:23.564Z,100.00
2022-09-07T00:30:24.450Z,100.00
2022-09-07T00:45:23.733Z,100.00
2022-09-07T01:00:23.537Z,100.00
2022-09-07T01:15:23.612Z,100.00
2022-09-07T01:30:23.573Z,100.00
2022-09-07T01:45:23.664Z,100.00
2022-09-07T02:00:23.680Z,100.00
2022-09-07T02:15:23.753Z,100.00
2022-09-07T02:30:23.637Z,100.00
2022-09-07T02:45:23.719Z,100.00
2022-09-07T03:00:32.105Z,100.00
2022-09-07T03:15:23.831Z,100.00
2022-09-07T03:30:23.959Z,100.00
2022-09-07T03:45:23.842Z,100.00
2022-09-07T04:00:29.688Z,100.00
2022-09-07T04:15:23.989Z,100.00
2022-09-07T04:30:23.830Z,100.00
2022-09-07T04:45:23.962Z,100.00
2022-09-07T05:00:23.876Z,100.00
2022-09-07T05:15:23.886Z,100.00
2022-09-07T05:31:19.062Z,100.00
2022-09-07T05:45:23.952Z,100.00
2022-09-07T06:00:27.211Z,100.00
2022-09-07T06:15:24.063Z,100.00
2022-09-07T06:30:26.182Z,100.00
2022-09-07T06:45:24.063Z,100.00
2022-09-07T07:00:30.874Z,100.00
2022-09-07T07:15:24.143Z,100.00
2022-09-07T07:30:25.056Z,100.00
2022-09-07T07:45:54.801Z,100.00
2022-09-07T08:00:50.733Z,100.00
2022-09-07T08:15:24.310Z,100.00
2022-09-07T08:30:24.465Z,100.00
2022-09-07T08:45:33.476Z,100.00
2022-09-07T09:00:35.794Z,100.00
2022-09-07T09:15:23.563Z,100.00
2022-09-07T09:30:24.400Z,100.00
2022-09-07T09:45:23.655Z,100.00
2022-09-07T10:00:29.960Z,100.00
2022-09-07T10:15:23.806Z,99.63
2022-09-07T10:30:23.628Z,93.35
2022-09-07T10:45:23.657Z,85.47
2022-09-07T11:00:27.501Z,80.60
2022-09-07T11:15:23.571Z,60.20
2022-09-07T11:30:24.048Z,56.10
2022-09-07T11:45:23.530Z,53.97
2022-09-07T12:00:45.957Z,49.50
2022-09-07T12:15:23.565Z,52.27
2022-09-07T12:30:32.241Z,49.40
2022-09-07T12:45:23.623Z,48.27
2022-09-07T13:00:25.054Z,49.33
2022-09-07T13:15:24.333Z,48.90
2022-09-07T13:30:24.962Z,48.60
2022-09-07T13:45:23.785Z,45.77
2022-09-07T14:00:55.517Z,43.73
2022-09-07T14:15:24.143Z,43.50
2022-09-07T14:30:23.872Z,45.45
2022-09-07T14:45:23.946Z,52.67
2022-09-07T15:01:37.716Z,53.33
2022-09-07T15:15:23.899Z,58.30
2022-09-07T15:30:27.518Z,70.70
2022-09-07T15:45:23.976Z,75.20
2022-09-07T16:00:29.093Z,74.57
2022-09-07T16:15:27.032Z,63.83
2022-09-07T16:30:24.420Z,75.60
2022-09-07T16:46:04.663Z,72.93
2022-09-07T17:00:25.201Z,90.53
2022-09-07T17:15:24.247Z,97.10
2022-09-07T17:30:24.795Z,90.87
2022-09-07T17:45:24.303Z,99.03
2022-09-07T18:00:25.060Z,100.00
2022-09-07T18:15:33.202Z,100.00
2022-09-07T18:30:36.174Z,100.00
2022-09-07T18:45:33.457Z,100.00
2022-09-07T19:00:34.357Z,100.00
2022-09-07T19:15:23.350Z,100.00
2022-09-07T19:30:23.691Z,100.00
2022-09-07T19:45:23.345Z,100.00
2022-09-07T20:00:24.778Z,100.00
2022-09-07T20:15:23.556Z,100.00
2022-09-07T20:30:23.453Z,100.00
2022-09-07T20:45:23.433Z,100.00
2022-09-07T21:00:57.220Z,100.00
2022-09-07T21:15:23.551Z,100.00
2022-09-07T21:30:24.326Z,100.00
2022-09-07T21:45:24.093Z,100.00
2022-09-07T22:15:23.787Z,100.00
2022-09-07T22:30:25.181Z,100.00
2022-09-07T22:45:23.643Z,100.00
2022-09-07T23:00:31.719Z,100.00
2022-09-07T23:15:23.792Z,100.00
2022-09-07T23:30:26.919Z,100.00
2022-09-07T23:45:23.701Z,100.00
